Time,TemperatureF,DewpointF,PressureIn,WindDirection,WindDirectionDegrees,WindSpeedMPH,WindSpeedGustMPH,Humidity,HourlyPrecipIn,Conditions,Clouds,dailyrainin,SolarRadiationWatts/m^2,SoftwareType,DateUTC
2013-05-05 00:02:00,42.2,38.6,30.37,ENE,59,0.0,0.0,87,0.00,,,0.00,0,Wunderground v.1.15,2013-05-05 04:02:00,
2013-05-05 00:04:00,42.2,38.6,30.37,ENE,59,0.0,0.0,87,0.00,,,0.00,0,Wunderground v.1.15,2013-05-05 04:04:00,
2013-05-05 00:06:00,42.2,38.6,30.37,ENE,59,0.0,1.0,87,0.00,,,0.00,0,Wunderground v.1.15,2013-05-05 04:06:00,
2013-05-05 00:10:00,42.1,38.5,30.37,ENE,59,0.0,1.0,87,0.00,,,0.00,0,Wunderground v.1.15,2013-05-05 04:10:00,
2013-05-05 00:16:00,42.1,38.8,30.37,ENE,59,0.0,1.0,88,0.00,,,0.00,0,Wunderground v.1.15,2013-05-05 04:16:00,
2013-05-05 00:20:00,41.9,38.6,30.37,ENE,59,0.0,1.0,88,0.00,,,0.00,0,Wunderground v.1.15,2013-05-05 04:20:00,
2013-05-05 00:26:00,41.8,38.8,30.37,ENE,59,0.0,1.0,89,0.00,,,0.00,0,Wunderground v.1.15,2013-05-05 04:26:00,
2013-05-05 00:32:00,41.8,38.8,30.37,ENE,59,0.0,1.0,89,0.00,,,0.00,0,Wunderground v.1.15,2013-05-05 04:32:00,
2013-05-05 00:38:00,41.6,38.9,30.37,ENE,59,0.0,1.0,90,0.00,,,0.00,0,Wunderground v.1.15,2013-05-05 04:38:00,
2013-05-05 00:44:00,41.6,38.9,30.37,ENE,59,0.0,1.0,90,0.00,,,0.00,0,Wunderground v.1.15,2013-05-05 04:44:00,
2013-05-05 00:50:00,41.6,38.9,30.37,ENE,59,1.0,1.0,90,0.00,,,0.00,0,Wunderground v.1.15,2013-05-05 04:50:00,
2013-05-05 00:56:00,41.5,38.8,30.37,ENE,59,1.0,1.0,90,0.00,,,0.00,0,Wunderground v.1.15,2013-05-05 04:56:00,
2013-05-05 01:02:00,41.3,38.6,30.37,ENE,59,0.0,2.0,90,0.00,,,0.00,0,Wunderground v.1.15,2013-05-05 05:02:00,
2013-05-05 01:08:00,41.3,38.9,30.37,ENE,59,0.0,2.0,91,0.00,,,0.00,0,Wunderground v.1.15,2013-05-05 05:08:00,
2013-05-05 01:14:00,41.2,38.8,30.36,ENE,58,0.0,1.0,91,0.00,,,0.00,0,Wunderground v.1.15,2013-05-05 05:14:00,
2013-05-05 01:20:00,41.2,38.8,30.36,ENE,58,0.0,0.0,91,0.00,,,0.00,0,Wunderground v.1.15,2013-05-05 05:20:00,
2013-05-05 01:26:00,41.1,38.7,30.36,ENE,58,0.0,2.0,91,0.00,,,0.00,0,Wunderground v.1.15,2013-05-05 05:26:00,
2013-05-05 01:32:00,41.1,38.7,30.36,ENE,58,0.0,0.0,91,0.00,,,0.00,0,Wunderground v.1.15,2013-05-05 05:32:00,
2013-05-05 01:38:00,40.9,38.5,30.36,ENE,58,0.0,0.0,91,0.00,,,0.00,0,Wunderground v.1.15,2013-05-05 05:38:00,
2013-05-05 01:44:00,40.8,38.4,30.36,ENE,58,0.0,0.0,91,0.00,,,0.00,0,Wunderground v.1.15,2013-05-05 05:44:00,
2013-05-05 01:50:00,40.8,38.4,30.36,ENE,58,0.0,0.0,91,0.00,,,0.00,0,Wunderground v.1.15,2013-05-05 05:50:00,
2013-05-05 01:56:00,40.8,38.4,30.36,ENE,58,0.0,0.0,91,0.00,,,0.00,0,Wunderground v.1.15,2013-05-05 05:56:00,
2013-05-05 02:02:00,40.6,38.2,30.36,ENE,58,0.0,2.0,91,0.00,,,0.00,0,Wunderground v.1.15,2013-05-05 06:02:00,
2013-05-05 02:08:00,40.6,38.2,30.36,ENE,58,0.0,2.0,91,0.00,,,0.00,0,Wunderground v.1.15,2013-05-05 06:08:00,
2013-05-05 02:14:00,40.5,38.1,30.36,ENE,58,0.0,1.0,91,0.00,,,0.00,0,Wunderground v.1.15,2013-05-05 06:14:00,
2013-05-05 02:20:00,40.3,37.9,30.36,ENE,58,0.0,0.0,91,0.00,,,0.00,0,Wunderground v.1.15,2013-05-05 06:20:00,
2013-05-05 02:26:00,40.3,37.9,30.36,ENE,58,0.0,0.0,91,0.00,,,0.00,0,Wunderground v.1.15,2013-05-05 06:26:00,
2013-05-05 02:32:00,40.3,38.2,30.36,ENE,58,0.0,0.0,92,0.00,,,0.00,0,Wunderground v.1.15,2013-05-05 06:32:00,
2013-05-05 02:38:00,40.2,37.8,30.36,ENE,58,0.0,0.0,91,0.00,,,0.00,0,Wunderground v.1.15,2013-05-05 06:38:00,
2013-05-05 02:44:00,40.2,38.1,30.36,ENE,58,0.0,3.0,92,0.00,,,0.00,0,Wunderground v.1.15,2013-05-05 06:44:00,
2013-05-05 02:50:00,40.2,38.1,30.36,ENE,58,0.0,0.0,92,0.00,,,0.00,0,Wunderground v.1.15,2013-05-05 06:50:00,
2013-05-05 02:56:00,40.2,38.1,30.35,ENE,58,0.0,0.0,92,0.00,,,0.00,0,Wunderground v.1.15,2013-05-05 06:56:00,
2013-05-05 03:02:00,40.1,38.0,30.35,ENE,58,0.0,4.0,92,0.00,,,0.00,0,Wunderground v.1.15,2013-05-05 07:02:00,
2013-05-05 03:08:00,40.1,38.0,30.35,ENE,58,0.0,4.0,92,0.00,,,0.00,0,Wunderground v.1.15,2013-05-05 07:08:00,
2013-05-05 03:14:00,39.9,37.8,30.35,ENE,58,0.0,2.0,92,0.00,,,0.00,0,Wunderground v.1.15,2013-05-05 07:14:00,
2013-05-05 03:20:00,39.9,37.8,30.35,ENE,57,0.0,2.0,92,0.00,,,0.00,0,Wunderground v.1.15,2013-05-05 07:20:00,
2013-05-05 03:26:00,39.9,37.8,30.35,ENE,57,0.0,2.0,92,0.00,,,0.00,0,Wunderground v.1.15,2013-05-05 07:26:00,
2013-05-05 03:32:00,39.9,37.8,30.35,ENE,57,0.0,2.0,92,0.00,,,0.00,0,Wunderground v.1.15,2013-05-05 07:32:00,
2013-05-05 03:38:00,40.1,38.0,30.35,ENE,57,0.0,2.0,92,0.00,,,0.00,0,Wunderground v.1.15,2013-05-05 07:38:00,
2013-05-05 03:44:00,39.9,37.8,30.35,ENE,57,0.0,2.0,92,0.00,,,0.00,0,Wunderground v.1.15,2013-05-05 07:44:00,
2013-05-05 03:50:00,39.9,37.8,30.35,ENE,57,0.0,2.0,92,0.00,,,0.00,0,Wunderground v.1.15,2013-05-05 07:50:00,
2013-05-05 03:56:00,39.8,37.7,30.35,ENE,57,0.0,2.0,92,0.00,,,0.00,0,Wunderground v.1.15,2013-05-05 07:56:00,
2013-05-05 04:02:00,39.8,37.7,30.35,ENE,57,0.0,2.0,92,0.00,,,0.00,0,Wunderground v.1.15,2013-05-05 08:02:00,
2013-05-05 04:08:00,39.6,37.5,30.35,ENE,57,0.0,2.0,92,0.00,,,0.00,0,Wunderground v.1.15,2013-05-05 08:08:00,
2013-05-05 04:14:00,39.6,37.5,30.35,ENE,57,0.0,0.0,92,0.00,,,0.00,0,Wunderground v.1.15,2013-05-05 08:14:00,
2013-05-05 04:20:00,39.5,37.4,30.35,ENE,57,0.0,1.0,92,0.00,,,0.00,0,Wunderground v.1.15,2013-05-05 08:20:00,
2013-05-05 04:26:00,39.5,37.4,30.34,ENE,57,0.0,1.0,92,0.00,,,0.00,0,Wunderground v.1.15,2013-05-05 08:26:00,
2013-05-05 04:32:00,39.5,37.4,30.34,ENE,57,0.0,1.0,92,0.00,,,0.00,0,Wunderground v.1.15,2013-05-05 08:32:00,
2013-05-05 04:38:00,39.3,37.2,30.34,ENE,57,0.0,1.0,92,0.00,,,0.00,0,Wunderground v.1.15,2013-05-05 08:38:00,
2013-05-05 04:44:00,39.3,37.2,30.34,ENE,57,0.0,0.0,92,0.00,,,0.00,0,Wunderground v.1.15,2013-05-05 08:44:00,
2013-05-05 04:50:00,39.2,37.1,30.34,ENE,57,0.0,0.0,92,0.00,,,0.00,0,Wunderground v.1.15,2013-05-05 08:50:00,
2013-05-05 04:56:00,39.2,37.3,30.34,ENE,57,0.0,0.0,93,0.00,,,0.00,0,Wunderground v.1.15,2013-05-05 08:56:00,
2013-05-05 05:02:00,39.1,37.2,30.34,ENE,57,0.0,1.0,93,0.00,,,0.00,0,Wunderground v.1.15,2013-05-05 09:02:00,
2013-05-05 05:08:00,39.1,37.2,30.34,ENE,57,0.0,1.0,93,0.00,,,0.00,0,Wunderground v.1.15,2013-05-05 09:08:00,
2013-05-05 05:14:00,39.1,37.2,30.34,ENE,57,1.0,2.0,93,0.00,,,0.00,0,Wunderground v.1.15,2013-05-05 09:14:00,
2013-05-05 05:20:00,39.1,37.2,30.34,ENE,57,0.0,0.0,93,0.00,,,0.00,0,Wunderground v.1.15,2013-05-05 09:20:00,
2013-05-05 05:26:00,39.1,37.2,30.35,ENE,57,0.0,0.0,93,0.00,,,0.00,0,Wunderground v.1.15,2013-05-05 09:26:00,
2013-05-05 05:32:00,38.9,37.0,30.35,ENE,57,0.0,1.0,93,0.00,,,0.00,0,Wunderground v.1.15,2013-05-05 09:32:00,
2013-05-05 05:38:00,38.9,37.0,30.35,ENE,57,0.0,2.0,93,0.00,,,0.00,7,Wunderground v.1.15,2013-05-05 09:38:00,
2013-05-05 05:44:00,38.8,36.9,30.35,ENE,57,0.0,0.0,93,0.00,,,0.00,11,Wunderground v.1.15,2013-05-05 09:44:00,
2013-05-05 05:50:00,38.6,36.8,30.35,ENE,57,0.0,0.0,93,0.00,,,0.00,14,Wunderground v.1.15,2013-05-05 09:50:00,
2013-05-05 05:56:00,38.6,36.8,30.35,ENE,57,0.0,0.0,93,0.00,,,0.00,19,Wunderground v.1.15,2013-05-05 09:56:00,
2013-05-05 06:02:00,38.5,36.7,30.35,ENE,57,0.0,0.0,93,0.00,,,0.00,23,Wunderground v.1.15,2013-05-05 10:02:00,
2013-05-05 06:08:00,38.6,37.0,30.35,ENE,57,0.0,2.0,94,0.00,,,0.00,28,Wunderground v.1.15,2013-05-05 10:08:00,
2013-05-05 06:14:00,38.8,37.2,30.36,ENE,57,0.0,2.0,94,0.00,,,0.00,32,Wunderground v.1.15,2013-05-05 10:14:00,
2013-05-05 06:20:00,38.8,37.2,30.36,ENE,57,0.0,2.0,94,0.00,,,0.00,37,Wunderground v.1.15,2013-05-05 10:20:00,
2013-05-05 06:26:00,39.1,37.5,30.36,ENE,57,0.0,2.0,94,0.00,,,0.00,42,Wunderground v.1.15,2013-05-05 10:26:00,
2013-05-05 06:32:00,39.3,37.7,30.36,ENE,57,0.0,2.0,94,0.00,,,0.00,60,Wunderground v.1.15,2013-05-05 10:32:00,
2013-05-05 06:38:00,39.8,38.2,30.36,ENE,57,0.0,2.0,94,0.00,,,0.00,128,Wunderground v.1.15,2013-05-05 10:38:00,
2013-05-05 06:44:00,40.5,38.9,30.36,ENE,57,0.0,2.0,94,0.00,,,0.00,148,Wunderground v.1.15,2013-05-05 10:44:00,
2013-05-05 06:50:00,41.1,39.5,30.36,ENE,57,0.0,2.0,94,0.00,,,0.00,167,Wunderground v.1.15,2013-05-05 10:50:00,
2013-05-05 06:56:00,41.6,39.7,30.36,ENE,57,0.0,2.0,93,0.00,,,0.00,188,Wunderground v.1.15,2013-05-05 10:56:00,
2013-05-05 07:02:00,42.1,39.9,30.36,ENE,57,0.0,2.0,92,0.00,,,0.00,204,Wunderground v.1.15,2013-05-05 11:02:00,
2013-05-05 07:08:00,42.8,40.1,30.36,ENE,57,0.0,2.0,90,0.00,,,0.00,225,Wunderground v.1.15,2013-05-05 11:08:00,
2013-05-05 07:14:00,43.3,40.3,30.36,ENE,57,0.0,2.0,89,0.00,,,0.00,244,Wunderground v.1.15,2013-05-05 11:14:00,
2013-05-05 07:20:00,44.1,40.8,30.36,ENE,57,0.0,1.0,88,0.00,,,0.00,262,Wunderground v.1.15,2013-05-05 11:20:00,
2013-05-05 07:26:00,44.2,39.7,30.36,NE,46,1.0,4.0,84,0.00,,,0.00,285,Wunderground v.1.15,2013-05-05 11:26:00,
2013-05-05 07:32:00,44.5,39.7,30.36,NNW,332,1.0,1.0,83,0.00,,,0.00,306,Wunderground v.1.15,2013-05-05 11:32:00,
2013-05-05 07:38:00,45.2,40.0,30.36,NNW,332,1.0,2.0,82,0.00,,,0.00,330,Wunderground v.1.15,2013-05-05 11:38:00,
2013-05-05 07:44:00,45.8,40.0,30.37,NNW,332,1.0,2.0,80,0.00,,,0.00,355,Wunderground v.1.15,2013-05-05 11:44:00,
2013-05-05 07:50:00,45.2,38.7,30.37,NNE,28,3.0,5.0,78,0.00,,,0.00,376,Wunderground v.1.15,2013-05-05 11:50:00,
2013-05-05 07:56:00,45.4,38.9,30.37,NNE,15,4.0,5.0,78,0.00,,,0.00,403,Wunderground v.1.15,2013-05-05 11:56:00,
2013-05-05 08:02:00,46.2,39.7,30.37,NNE,15,2.0,4.0,78,0.00,,,0.00,425,Wunderground v.1.15,2013-05-05 12:02:00,
2013-05-05 08:08:00,46.8,39.6,30.37,NNE,13,1.0,4.0,76,0.00,,,0.00,443,Wunderground v.1.15,2013-05-05 12:08:00,
2013-05-05 08:14:00,47.0,39.8,30.37,WNW,292,2.0,2.0,76,0.00,,,0.00,468,Wunderground v.1.15,2013-05-05 12:14:00,
2013-05-05 08:20:00,47.3,39.8,30.37,North,355,2.0,2.0,75,0.00,,,0.00,483,Wunderground v.1.15,2013-05-05 12:20:00,
2013-05-05 08:26:00,48.3,40.4,30.37,WNW,298,1.0,5.0,74,0.00,,,0.00,506,Wunderground v.1.15,2013-05-05 12:26:00,
2013-05-05 08:32:00,47.9,39.3,30.37,NE,55,2.0,4.0,72,0.00,,,0.00,527,Wunderground v.1.15,2013-05-05 12:32:00,
2013-05-05 08:38:00,48.3,39.7,30.37,WNW,302,3.0,5.0,72,0.00,,,0.00,554,Wunderground v.1.15,2013-05-05 12:38:00,
2013-05-05 08:44:00,49.1,40.5,30.37,WNW,302,2.0,3.0,72,0.00,,,0.00,570,Wunderground v.1.15,2013-05-05 12:44:00,
2013-05-05 08:50:00,49.4,39.3,30.37,NE,56,2.0,2.0,68,0.00,,,0.00,193,Wunderground v.1.15,2013-05-05 12:50:00,
2013-05-05 08:56:00,49.2,39.8,30.37,NW,319,2.0,2.0,70,0.00,,,0.00,680,Wunderground v.1.15,2013-05-05 12:56:00,
2013-05-05 09:02:00,49.2,39.1,30.37,NNE,15,2.0,4.0,68,0.00,,,0.00,605,Wunderground v.1.15,2013-05-05 13:02:00,
2013-05-05 09:08:00,50.2,40.4,30.37,NNE,15,2.0,4.0,69,0.00,,,0.00,735,Wunderground v.1.15,2013-05-05 13:08:00,
2013-05-05 09:14:00,50.7,40.1,30.37,NNE,16,1.0,1.0,67,0.00,,,0.00,230,Wunderground v.1.15,2013-05-05 13:14:00,
2013-05-05 09:20:00,51.0,39.6,30.37,ESE,109,1.0,1.0,65,0.00,,,0.00,202,Wunderground v.1.15,2013-05-05 13:20:00,
2013-05-05 09:26:00,51.4,40.0,30.36,ESE,107,0.0,1.0,65,0.00,,,0.00,851,Wunderground v.1.15,2013-05-05 13:26:00,
2013-05-05 09:32:00,51.9,40.1,30.36,South,169,2.0,2.0,64,0.00,,,0.00,800,Wunderground v.1.15,2013-05-05 13:32:00,
2013-05-05 09:38:00,52.3,39.2,30.36,ENE,71,2.0,2.0,61,0.00,,,0.00,271,Wunderground v.1.15,2013-05-05 13:38:00,
2013-05-05 09:44:00,52.5,39.4,30.36,East,82,1.0,6.0,61,0.00,,,0.00,288,Wunderground v.1.15,2013-05-05 13:44:00,
2013-05-05 09:50:00,52.0,39.0,30.36,NNE,30,2.0,4.0,61,0.00,,,0.00,288,Wunderground v.1.15,2013-05-05 13:50:00,
2013-05-05 09:56:00,52.6,38.7,30.36,NNE,29,3.0,5.0,59,0.00,,,0.00,826,Wunderground v.1.15,2013-05-05 13:56:00,
2013-05-05 10:02:00,52.6,38.2,30.36,NE,52,3.0,3.0,58,0.00,,,0.00,842,Wunderground v.1.15,2013-05-05 14:02:00,
2013-05-05 10:08:00,53.1,38.3,30.36,ENE,69,3.0,6.0,57,0.00,,,0.00,840,Wunderground v.1.15,2013-05-05 14:08:00,
2013-05-05 10:14:00,54.1,38.3,30.36,ESE,113,3.0,6.0,55,0.00,,,0.00,854,Wunderground v.1.15,2013-05-05 14:14:00,
2013-05-05 10:20:00,54.2,36.9,30.36,ENE,58,2.0,6.0,52,0.00,,,0.00,858,Wunderground v.1.15,2013-05-05 14:20:00,
2013-05-05 10:26:00,54.1,36.4,30.36,NE,51,3.0,6.0,51,0.00,,,0.00,877,Wunderground v.1.15,2013-05-05 14:26:00,
2013-05-05 10:32:00,53.9,36.2,30.36,SE,126,3.0,6.0,51,0.00,,,0.00,884,Wunderground v.1.15,2013-05-05 14:32:00,
2013-05-05 10:38:00,54.4,37.1,30.36,SE,128,3.0,6.0,52,0.00,,,0.00,802,Wunderground v.1.15,2013-05-05 14:38:00,
2013-05-05 10:44:00,54.4,36.1,30.36,ESE,116,2.0,6.0,50,0.00,,,0.00,930,Wunderground v.1.15,2013-05-05 14:44:00,
2013-05-05 10:50:00,55.3,36.5,30.36,ESE,123,2.0,2.0,49,0.00,,,0.00,960,Wunderground v.1.15,2013-05-05 14:50:00,
2013-05-05 10:56:00,56.5,36.5,30.36,ESE,120,2.0,6.0,47,0.00,,,0.00,983,Wunderground v.1.15,2013-05-05 14:56:00,
2013-05-05 11:02:00,55.7,36.3,30.36,NE,44,2.0,6.0,48,0.00,,,0.00,998,Wunderground v.1.15,2013-05-05 15:02:00,
2013-05-05 11:08:00,56.0,37.1,30.36,NE,36,3.0,6.0,49,0.00,,,0.00,895,Wunderground v.1.15,2013-05-05 15:08:00,
2013-05-05 11:14:00,55.7,36.3,30.36,East,100,3.0,5.0,48,0.00,,,0.00,608,Wunderground v.1.15,2013-05-05 15:14:00,
2013-05-05 11:20:00,55.3,36.5,30.36,East,101,2.0,5.0,49,0.00,,,0.00,617,Wunderground v.1.15,2013-05-05 15:20:00,
2013-05-05 11:26:00,55.0,36.7,30.36,NE,43,2.0,5.0,50,0.00,,,0.00,540,Wunderground v.1.15,2013-05-05 15:26:00,
2013-05-05 11:32:00,54.8,36.5,30.36,SE,142,2.0,5.0,50,0.00,,,0.00,670,Wunderground v.1.15,2013-05-05 15:32:00,
2013-05-05 11:38:00,53.8,35.6,30.36,ESE,111,3.0,6.0,50,0.00,,,0.00,385,Wunderground v.1.15,2013-05-05 15:38:00,
2013-05-05 11:44:00,54.1,36.4,30.36,East,81,2.0,5.0,51,0.00,,,0.00,338,Wunderground v.1.15,2013-05-05 15:44:00,
2013-05-05 11:50:00,54.1,36.4,30.36,ENE,65,2.0,2.0,51,0.00,,,0.00,431,Wunderground v.1.15,2013-05-05 15:50:00,
2013-05-05 11:56:00,53.8,36.6,30.35,NNE,21,3.0,7.0,52,0.00,,,0.00,483,Wunderground v.1.15,2013-05-05 15:56:00,
2013-05-05 12:02:00,53.5,36.3,30.35,ENE,76,4.0,13.0,52,0.00,,,0.00,726,Wunderground v.1.15,2013-05-05 16:02:00,
2013-05-05 12:08:00,53.3,36.1,30.35,NE,40,5.0,13.0,52,0.00,,,0.00,840,Wunderground v.1.15,2013-05-05 16:08:00,
2013-05-05 12:14:00,54.7,37.4,30.35,SE,125,3.0,5.0,52,0.00,,,0.00,900,Wunderground v.1.15,2013-05-05 16:14:00,
2013-05-05 12:20:00,55.7,36.8,30.35,South,173,3.0,3.0,49,0.00,,,0.00,896,Wunderground v.1.15,2013-05-05 16:20:00,
2013-05-05 12:26:00,55.9,37.0,30.35,SSE,156,3.0,5.0,49,0.00,,,0.00,788,Wunderground v.1.15,2013-05-05 16:26:00,
2013-05-05 12:32:00,56.2,37.8,30.35,SSE,161,2.0,8.0,50,0.00,,,0.00,793,Wunderground v.1.15,2013-05-05 16:32:00,
2013-05-05 12:38:00,55.3,37.5,30.35,South,169,3.0,8.0,51,0.00,,,0.00,835,Wunderground v.1.15,2013-05-05 16:38:00,
2013-05-05 12:44:00,55.3,37.5,30.34,SE,138,3.0,5.0,51,0.00,,,0.00,842,Wunderground v.1.15,2013-05-05 16:44:00,
2013-05-05 12:50:00,54.8,37.0,30.34,SSE,159,3.0,7.0,51,0.00,,,0.00,854,Wunderground v.1.15,2013-05-05 16:50:00,
2013-05-05 12:56:00,54.7,36.9,30.35,ESE,103,4.0,7.0,51,0.00,,,0.00,926,Wunderground v.1.15,2013-05-05 16:56:00,
2013-05-05 13:02:00,55.3,37.0,30.35,SE,131,3.0,5.0,50,0.00,,,0.00,990,Wunderground v.1.15,2013-05-05 17:02:00,
2013-05-05 13:08:00,55.3,37.5,30.35,SE,141,3.0,5.0,51,0.00,,,0.00,1013,Wunderground v.1.15,2013-05-05 17:08:00,
2013-05-05 13:14:00,55.6,37.2,30.35,SSE,150,3.0,7.0,50,0.00,,,0.00,1011,Wunderground v.1.15,2013-05-05 17:14:00,
2013-05-05 13:20:00,55.0,36.2,30.35,SSE,151,4.0,4.0,49,0.00,,,0.00,1009,Wunderground v.1.15,2013-05-05 17:20:00,
2013-05-05 13:26:00,55.7,37.3,30.35,SE,131,3.0,5.0,50,0.00,,,0.00,997,Wunderground v.1.15,2013-05-05 17:26:00,
2013-05-05 13:32:00,56.6,37.1,30.35,ESE,104,2.0,6.0,48,0.00,,,0.00,990,Wunderground v.1.15,2013-05-05 17:32:00,
2013-05-05 13:38:00,56.0,36.6,30.35,SSE,148,3.0,6.0,48,0.00,,,0.00,986,Wunderground v.1.15,2013-05-05 17:38:00,
2013-05-05 13:44:00,56.3,37.4,30.35,East,84,3.0,3.0,49,0.00,,,0.00,979,Wunderground v.1.15,2013-05-05 17:44:00,
2013-05-05 13:50:00,55.9,35.9,30.35,SSE,163,3.0,3.0,47,0.00,,,0.00,970,Wunderground v.1.15,2013-05-05 17:50:00,
2013-05-05 13:56:00,56.6,36.0,30.34,ESE,105,3.0,5.0,46,0.00,,,0.00,960,Wunderground v.1.15,2013-05-05 17:56:00,
2013-05-05 14:02:00,56.5,36.0,30.34,East,87,3.0,6.0,46,0.00,,,0.00,956,Wunderground v.1.15,2013-05-05 18:02:00,
2013-05-05 14:08:00,57.0,36.4,30.34,East,92,3.0,7.0,46,0.00,,,0.00,949,Wunderground v.1.15,2013-05-05 18:08:00,
2013-05-05 14:14:00,57.2,37.1,30.34,SSE,165,3.0,7.0,47,0.00,,,0.00,935,Wunderground v.1.15,2013-05-05 18:14:00,
2013-05-05 14:20:00,57.3,36.7,30.34,ESE,111,3.0,3.0,46,0.00,,,0.00,923,Wunderground v.1.15,2013-05-05 18:20:00,
2013-05-05 14:26:00,57.0,36.4,30.34,SE,135,4.0,7.0,46,0.00,,,0.00,912,Wunderground v.1.15,2013-05-05 18:26:00,
2013-05-05 14:32:00,57.3,37.2,30.34,ENE,68,2.0,7.0,47,0.00,,,0.00,896,Wunderground v.1.15,2013-05-05 18:32:00,
2013-05-05 14:38:00,57.3,37.2,30.34,SE,146,2.0,7.0,47,0.00,,,0.00,884,Wunderground v.1.15,2013-05-05 18:38:00,
2013-05-05 14:44:00,56.5,36.5,30.34,SSE,165,3.0,7.0,47,0.00,,,0.00,870,Wunderground v.1.15,2013-05-05 18:44:00,
2013-05-05 14:50:00,57.2,37.1,30.34,SSE,167,2.0,2.0,47,0.00,,,0.00,854,Wunderground v.1.15,2013-05-05 18:50:00,
2013-05-05 14:56:00,57.5,37.4,30.33,SE,146,3.0,7.0,47,0.00,,,0.00,844,Wunderground v.1.15,2013-05-05 18:56:00,
2013-05-05 15:02:00,57.3,36.1,30.33,SE,142,3.0,9.0,45,0.00,,,0.00,823,Wunderground v.1.15,2013-05-05 19:02:00,
2013-05-05 15:08:00,57.3,36.7,30.33,NNE,24,3.0,9.0,46,0.00,,,0.00,809,Wunderground v.1.15,2013-05-05 19:08:00,
2013-05-05 15:14:00,57.6,36.4,30.33,East,82,3.0,6.0,45,0.00,,,0.00,793,Wunderground v.1.15,2013-05-05 19:14:00,
2013-05-05 15:20:00,57.0,36.4,30.33,SSE,157,3.0,6.0,46,0.00,,,0.00,773,Wunderground v.1.15,2013-05-05 19:20:00,
2013-05-05 15:26:00,56.9,36.9,30.32,ENE,65,3.0,6.0,47,0.00,,,0.00,765,Wunderground v.1.15,2013-05-05 19:26:00,
2013-05-05 15:32:00,57.2,37.1,30.32,East,88,3.0,6.0,47,0.00,,,0.00,744,Wunderground v.1.15,2013-05-05 19:32:00,
2013-05-05 15:38:00,57.3,36.1,30.32,NE,51,3.0,6.0,45,0.00,,,0.00,724,Wunderground v.1.15,2013-05-05 19:38:00,
2013-05-05 15:44:00,56.6,36.6,30.32,East,90,4.0,6.0,47,0.00,,,0.00,707,Wunderground v.1.15,2013-05-05 19:44:00,
2013-05-05 15:50:00,57.3,37.2,30.32,East,101,2.0,6.0,47,0.00,,,0.00,691,Wunderground v.1.15,2013-05-05 19:50:00,
2013-05-05 15:56:00,57.5,37.4,30.32,SSE,155,2.0,6.0,47,0.00,,,0.00,673,Wunderground v.1.15,2013-05-05 19:56:00,
2013-05-05 16:02:00,57.8,37.1,30.32,ENE,78,3.0,6.0,46,0.00,,,0.00,652,Wunderground v.1.15,2013-05-05 20:02:00,
2013-05-05 16:08:00,57.3,37.2,30.32,East,87,2.0,6.0,47,0.00,,,0.00,636,Wunderground v.1.15,2013-05-05 20:08:00,
2013-05-05 16:14:00,57.6,37.0,30.31,ENE,71,2.0,3.0,46,0.00,,,0.00,619,Wunderground v.1.15,2013-05-05 20:14:00,
2013-05-05 16:20:00,57.5,36.9,30.31,ESE,114,2.0,2.0,46,0.00,,,0.00,596,Wunderground v.1.15,2013-05-05 20:20:00,
2013-05-05 16:26:00,57.3,36.7,30.31,SE,137,2.0,3.0,46,0.00,,,0.00,575,Wunderground v.1.15,2013-05-05 20:26:00,
2013-05-05 16:32:00,57.2,37.1,30.31,East,96,2.0,4.0,47,0.00,,,0.00,555,Wunderground v.1.15,2013-05-05 20:32:00,
2013-05-05 16:38:00,58.1,36.9,30.31,East,93,2.0,4.0,45,0.00,,,0.00,534,Wunderground v.1.15,2013-05-05 20:38:00,
2013-05-05 16:44:00,57.6,37.0,30.31,SSE,154,2.0,5.0,46,0.00,,,0.00,513,Wunderground v.1.15,2013-05-05 20:44:00,
2013-05-05 16:50:00,56.6,36.6,30.31,East,95,3.0,4.0,47,0.00,,,0.00,494,Wunderground v.1.15,2013-05-05 20:50:00,
2013-05-05 16:56:00,56.5,37.0,30.31,SSW,199,3.0,4.0,48,0.00,,,0.00,478,Wunderground v.1.15,2013-05-05 20:56:00,
2013-05-05 17:02:00,56.6,37.1,30.31,East,80,2.0,5.0,48,0.00,,,0.00,452,Wunderground v.1.15,2013-05-05 21:02:00,
2013-05-05 17:08:00,56.0,37.1,30.31,ENE,72,3.0,6.0,49,0.00,,,0.00,432,Wunderground v.1.15,2013-05-05 21:08:00,
2013-05-05 17:14:00,56.2,37.3,30.31,SE,136,3.0,6.0,49,0.00,,,0.00,413,Wunderground v.1.15,2013-05-05 21:14:00,
2013-05-05 17:20:00,56.3,37.4,30.31,East,100,2.0,2.0,49,0.00,,,0.00,396,Wunderground v.1.15,2013-05-05 21:20:00,
2013-05-05 17:26:00,56.0,37.1,30.31,ENE,69,2.0,6.0,49,0.00,,,0.00,373,Wunderground v.1.15,2013-05-05 21:26:00,
2013-05-05 17:32:00,56.0,37.1,30.31,SSE,154,2.0,6.0,49,0.00,,,0.00,352,Wunderground v.1.15,2013-05-05 21:32:00,
2013-05-05 17:38:00,55.7,36.8,30.31,East,96,2.0,6.0,49,0.00,,,0.00,332,Wunderground v.1.15,2013-05-05 21:38:00,
2013-05-05 17:44:00,55.7,36.8,30.30,SE,145,2.0,6.0,49,0.00,,,0.00,311,Wunderground v.1.15,2013-05-05 21:44:00,
2013-05-05 17:50:00,55.4,37.1,30.30,South,170,2.0,2.0,50,0.00,,,0.00,292,Wunderground v.1.15,2013-05-05 21:50:00,
2013-05-05 17:56:00,55.1,37.8,30.30,ENE,69,2.0,6.0,52,0.00,,,0.00,269,Wunderground v.1.15,2013-05-05 21:56:00,
2013-05-05 18:02:00,54.4,37.6,30.30,ENE,65,4.0,6.0,53,0.00,,,0.00,250,Wunderground v.1.15,2013-05-05 22:02:00,
2013-05-05 18:08:00,54.2,37.4,30.30,NE,45,3.0,6.0,53,0.00,,,0.00,230,Wunderground v.1.15,2013-05-05 22:08:00,
2013-05-05 18:14:00,54.1,37.3,30.30,East,81,3.0,5.0,53,0.00,,,0.00,211,Wunderground v.1.15,2013-05-05 22:14:00,
2013-05-05 18:20:00,53.8,37.1,30.30,SE,142,3.0,3.0,53,0.00,,,0.00,192,Wunderground v.1.15,2013-05-05 22:20:00,
2013-05-05 18:26:00,53.6,37.3,30.30,ENE,71,2.0,5.0,54,0.00,,,0.00,171,Wunderground v.1.15,2013-05-05 22:26:00,
2013-05-05 18:32:00,53.6,38.3,30.30,East,97,2.0,5.0,56,0.00,,,0.00,155,Wunderground v.1.15,2013-05-05 22:32:00,
2013-05-05 18:38:00,53.6,38.3,30.30,East,98,1.0,5.0,56,0.00,,,0.00,135,Wunderground v.1.15,2013-05-05 22:38:00,
2013-05-05 18:44:00,53.3,38.0,30.30,East,84,1.0,5.0,56,0.00,,,0.00,118,Wunderground v.1.15,2013-05-05 22:44:00,
2013-05-05 18:50:00,52.9,38.1,30.30,SSE,150,2.0,5.0,57,0.00,,,0.00,51,Wunderground v.1.15,2013-05-05 22:50:00,
2013-05-05 18:56:00,52.6,37.8,30.31,ESE,121,2.0,5.0,57,0.00,,,0.00,53,Wunderground v.1.15,2013-05-05 22:56:00,
2013-05-05 19:02:00,52.2,37.0,30.31,East,80,1.0,5.0,56,0.00,,,0.00,35,Wunderground v.1.15,2013-05-05 23:02:00,
2013-05-05 19:08:00,51.9,37.1,30.31,East,90,2.0,5.0,57,0.00,,,0.00,30,Wunderground v.1.15,2013-05-05 23:08:00,
2013-05-05 19:14:00,51.6,36.9,30.31,South,174,2.0,5.0,57,0.00,,,0.00,28,Wunderground v.1.15,2013-05-05 23:14:00,
2013-05-05 19:20:00,51.3,37.4,30.31,ESE,107,2.0,5.0,59,0.00,,,0.00,23,Wunderground v.1.15,2013-05-05 23:20:00,
2013-05-05 19:26:00,51.1,37.7,30.31,NE,54,2.0,5.0,60,0.00,,,0.00,19,Wunderground v.1.15,2013-05-05 23:26:00,
2013-05-05 19:32:00,50.8,37.8,30.31,ENE,75,2.0,5.0,61,0.00,,,0.00,16,Wunderground v.1.15,2013-05-05 23:32:00,
2013-05-05 19:38:00,50.5,37.5,30.31,ESE,110,1.0,5.0,61,0.00,,,0.00,12,Wunderground v.1.15,2013-05-05 23:38:00,
2013-05-05 19:44:00,50.4,37.9,30.31,ENE,61,1.0,5.0,62,0.00,,,0.00,9,Wunderground v.1.15,2013-05-05 23:44:00,
2013-05-05 19:50:00,50.2,38.1,30.31,East,88,1.0,1.0,63,0.00,,,0.00,5,Wunderground v.1.15,2013-05-05 23:50:00,
2013-05-05 19:56:00,50.1,38.4,30.31,East,88,1.0,5.0,64,0.00,,,0.00,0,Wunderground v.1.15,2013-05-05 23:56:00,
2013-05-05 20:02:00,49.9,38.6,30.31,ENE,61,1.0,5.0,65,0.00,,,0.00,0,Wunderground v.1.15,2013-05-06 00:02:00,
2013-05-05 20:08:00,49.8,38.9,30.31,East,85,1.0,6.0,66,0.00,,,0.00,0,Wunderground v.1.15,2013-05-06 00:08:00,
2013-05-05 20:14:00,49.6,39.5,30.31,NE,34,1.0,6.0,68,0.00,,,0.00,0,Wunderground v.1.15,2013-05-06 00:14:00,
2013-05-05 20:20:00,49.4,39.7,30.31,ENE,57,1.0,1.0,69,0.00,,,0.00,0,Wunderground v.1.15,2013-05-06 00:20:00,
2013-05-05 20:26:00,49.2,40.2,30.31,SSE,161,1.0,6.0,71,0.00,,,0.00,0,Wunderground v.1.15,2013-05-06 00:26:00,
2013-05-05 20:32:00,49.2,40.9,30.31,ENE,60,1.0,6.0,73,0.00,,,0.00,0,Wunderground v.1.15,2013-05-06 00:32:00,
2013-05-05 20:38:00,49.1,41.2,30.31,ENE,72,1.0,6.0,74,0.00,,,0.00,0,Wunderground v.1.15,2013-05-06 00:38:00,
2013-05-05 20:44:00,48.8,41.2,30.31,ENE,71,1.0,6.0,75,0.00,,,0.00,0,Wunderground v.1.15,2013-05-06 00:44:00,
2013-05-05 20:50:00,48.8,41.6,30.31,ENE,71,0.0,6.0,76,0.00,,,0.00,0,Wunderground v.1.15,2013-05-06 00:50:00,
2013-05-05 20:56:00,48.6,41.4,30.32,ENE,71,0.0,6.0,76,0.00,,,0.00,0,Wunderground v.1.15,2013-05-06 00:56:00,
2013-05-05 21:02:00,48.5,41.6,30.32,ENE,72,0.0,6.0,77,0.00,,,0.00,0,Wunderground v.1.15,2013-05-06 01:02:00,
2013-05-05 21:08:00,48.3,41.8,30.32,ENE,71,0.0,6.0,78,0.00,,,0.00,0,Wunderground v.1.15,2013-05-06 01:08:00,
2013-05-05 21:14:00,48.3,41.8,30.32,ENE,72,0.0,0.0,78,0.00,,,0.00,0,Wunderground v.1.15,2013-05-06 01:14:00,
2013-05-05 21:20:00,48.2,41.7,30.32,ENE,71,0.0,0.0,78,0.00,,,0.00,0,Wunderground v.1.15,2013-05-06 01:20:00,
2013-05-05 21:26:00,48.0,41.5,30.32,ENE,71,0.0,0.0,78,0.00,,,0.00,0,Wunderground v.1.15,2013-05-06 01:26:00,
2013-05-05 21:32:00,47.9,41.7,30.32,ENE,72,0.0,0.0,79,0.00,,,0.00,0,Wunderground v.1.15,2013-05-06 01:32:00,
2013-05-05 21:38:00,47.6,41.4,30.32,ENE,72,0.0,0.0,79,0.00,,,0.00,0,Wunderground v.1.15,2013-05-06 01:38:00,
2013-05-05 21:44:00,47.6,41.4,30.32,ENE,72,0.0,0.0,79,0.00,,,0.00,0,Wunderground v.1.15,2013-05-06 01:44:00,
2013-05-05 21:50:00,47.6,41.4,30.32,ENE,72,0.0,0.0,79,0.00,,,0.00,0,Wunderground v.1.15,2013-05-06 01:50:00,
2013-05-05 21:56:00,47.6,41.4,30.32,ENE,72,0.0,0.0,79,0.00,,,0.00,0,Wunderground v.1.15,2013-05-06 01:56:00,
2013-05-05 22:02:00,47.7,41.8,30.32,ENE,72,0.0,0.0,80,0.00,,,0.00,0,Wunderground v.1.15,2013-05-06 02:02:00,
2013-05-05 22:08:00,47.7,41.8,30.32,ENE,72,0.0,0.0,80,0.00,,,0.00,0,Wunderground v.1.15,2013-05-06 02:08:00,
2013-05-05 22:14:00,47.7,41.8,30.32,ENE,72,0.0,0.0,80,0.00,,,0.00,0,Wunderground v.1.15,2013-05-06 02:14:00,
2013-05-05 22:20:00,47.9,42.3,30.32,SSE,154,0.0,0.0,81,0.00,,,0.00,0,Wunderground v.1.15,2013-05-06 02:20:00,
2013-05-05 22:26:00,47.9,42.3,30.32,SSE,154,0.0,1.0,81,0.00,,,0.00,0,Wunderground v.1.15,2013-05-06 02:26:00,
2013-05-05 22:32:00,47.6,42.1,30.32,SSE,154,0.0,1.0,81,0.00,,,0.00,0,Wunderground v.1.15,2013-05-06 02:32:00,
2013-05-05 22:38:00,47.4,42.2,30.32,SSE,153,0.0,1.0,82,0.00,,,0.00,0,Wunderground v.1.15,2013-05-06 02:38:00,
2013-05-05 22:44:00,47.4,42.2,30.32,SSE,157,0.0,1.0,82,0.00,,,0.00,0,Wunderground v.1.15,2013-05-06 02:44:00,
2013-05-05 22:50:00,47.4,42.2,30.32,SSE,157,0.0,0.0,82,0.00,,,0.00,0,Wunderground v.1.15,2013-05-06 02:50:00,
2013-05-05 22:56:00,47.4,42.2,30.32,SSE,157,0.0,0.0,82,0.00,,,0.00,0,Wunderground v.1.15,2013-05-06 02:56:00,
2013-05-05 23:02:00,47.3,42.1,30.32,SSE,157,0.0,0.0,82,0.00,,,0.00,0,Wunderground v.1.15,2013-05-06 03:02:00,
2013-05-05 23:08:00,47.0,41.8,30.32,SSE,157,0.0,0.0,82,0.00,,,0.00,0,Wunderground v.1.15,2013-05-06 03:08:00,
2013-05-05 23:14:00,46.8,41.9,30.32,SSE,157,0.0,0.0,83,0.00,,,0.00,0,Wunderground v.1.15,2013-05-06 03:14:00,
2013-05-05 23:20:00,46.5,41.6,30.32,SSE,157,0.0,0.0,83,0.00,,,0.00,0,Wunderground v.1.15,2013-05-06 03:20:00,
2013-05-05 23:26:00,46.4,41.5,30.32,SSE,157,0.0,0.0,83,0.00,,,0.00,0,Wunderground v.1.15,2013-05-06 03:26:00,
2013-05-05 23:32:00,46.2,41.6,30.32,SSE,157,0.0,0.0,84,0.00,,,0.00,0,Wunderground v.1.15,2013-05-06 03:32:00,
2013-05-05 23:38:00,46.1,41.5,30.32,SSE,157,0.0,0.0,84,0.00,,,0.00,0,Wunderground v.1.15,2013-05-06 03:38:00,
2013-05-05 23:44:00,46.1,41.8,30.32,SSE,157,0.0,0.0,85,0.00,,,0.00,0,Wunderground v.1.15,2013-05-06 03:44:00,
2013-05-05 23:50:00,46.1,41.8,30.32,SSE,157,0.0,0.0,85,0.00,,,0.00,0,Wunderground v.1.15,2013-05-06 03:50:00,
2013-05-05 23:56:00,46.1,42.1,30.32,SSE,157,0.0,2.0,86,0.00,,,0.00,0,Wunderground v.1.15,2013-05-06 03:56:00,